sensor_id;sensor_type;location;lat;lon;timestamp;P1;durP1;ratioP1;P2;durP2;ratioP2
71456;SDS011;59263;48.160;11.752;2023-08-24T00:01:03;9.23;;;4.30;;
71456;SDS011;59263;48.160;11.752;2023-08-24T00:03:28;11.47;;;4.57;;
71456;SDS011;59263;48.160;11.752;2023-08-24T00:05:53;11.97;;;4.77;;
71456;SDS011;59263;48.160;11.752;2023-08-24T00:08:19;8.97;;;4.47;;
71456;SDS011;59263;48.160;11.752;2023-08-24T00:10:44;11.70;;;4.80;;
71456;SDS011;59263;48.160;11.752;2023-08-24T00:13:12;9.13;;;4.40;;
71456;SDS011;59263;48.160;11.752;2023-08-24T00:15:38;11.88;;;4.43;;
71456;SDS011;59263;48.160;11.752;2023-08-24T00:18:04;11.77;;;4.63;;
71456;SDS011;59263;48.160;11.752;2023-08-24T00:20:30;10.88;;;5.28;;
71456;SDS011;59263;48.160;11.752;2023-08-24T00:22:57;11.80;;;4.75;;
71456;SDS011;59263;48.160;11.752;2023-08-24T00:25:23;10.73;;;5.40;;
71456;SDS011;59263;48.160;11.752;2023-08-24T00:27:49;12.57;;;5.90;;
71456;SDS011;59263;48.160;11.752;2023-08-24T00:30:14;10.60;;;5.03;;
71456;SDS011;59263;48.160;11.752;2023-08-24T00:32:40;11.80;;;5.50;;
71456;SDS011;59263;48.160;11.752;2023-08-24T00:35:06;12.57;;;5.07;;
71456;SDS011;59263;48.160;11.752;2023-08-24T00:37:33;11.18;;;4.88;;
71456;SDS011;59263;48.160;11.752;2023-08-24T00:40:03;10.13;;;5.20;;
71456;SDS011;59263;48.160;11.752;2023-08-24T00:42:32;10.75;;;4.75;;
71456;SDS011;59263;48.160;11.752;2023-08-24T00:44:58;11.23;;;5.13;;
71456;SDS011;59263;48.160;11.752;2023-08-24T00:47:23;11.37;;;5.07;;
71456;SDS011;59263;48.160;11.752;2023-08-24T00:49:49;12.25;;;5.75;;
71456;SDS011;59263;48.160;11.752;2023-08-24T00:52:16;9.35;;;4.90;;
71456;SDS011;59263;48.160;11.752;2023-08-24T00:54:41;10.80;;;5.10;;
71456;SDS011;59263;48.160;11.752;2023-08-24T00:57:07;11.90;;;5.47;;
71456;SDS011;59263;48.160;11.752;2023-08-24T00:59:33;9.70;;;4.57;;
71456;SDS011;59263;48.160;11.752;2023-08-24T01:01:59;9.80;;;4.95;;
71456;SDS011;59263;48.160;11.752;2023-08-24T01:04:25;10.33;;;5.13;;
71456;SDS011;59263;48.160;11.752;2023-08-24T01:06:51;9.53;;;5.13;;
71456;SDS011;59263;48.160;11.752;2023-08-24T01:09:17;9.18;;;4.93;;
71456;SDS011;59263;48.160;11.752;2023-08-24T01:17:09;12.18;;;5.13;;
71456;SDS011;59263;48.160;11.752;2023-08-24T01:19:43;10.18;;;5.45;;
71456;SDS011;59263;48.160;11.752;2023-08-24T01:25:00;11.30;;;5.10;;
71456;SDS011;59263;48.160;11.752;2023-08-24T01:27:33;9.85;;;5.43;;
71456;SDS011;59263;48.160;11.752;2023-08-24T01:30:02;11.73;;;5.22;;
71456;SDS011;59263;48.160;11.752;2023-08-24T01:32:32;11.77;;;5.72;;
71456;SDS011;59263;48.160;11.752;2023-08-24T01:34:58;10.45;;;5.38;;
71456;SDS011;59263;48.160;11.752;2023-08-24T01:37:24;11.25;;;5.97;;
71456;SDS011;59263;48.160;11.752;2023-08-24T01:39:54;10.43;;;5.20;;
71456;SDS011;59263;48.160;11.752;2023-08-24T01:42:34;10.57;;;5.50;;
71456;SDS011;59263;48.160;11.752;2023-08-24T01:45:03;11.68;;;5.50;;
71456;SDS011;59263;48.160;11.752;2023-08-24T01:47:33;14.35;;;5.70;;
71456;SDS011;59263;48.160;11.752;2023-08-24T01:50:00;13.88;;;5.30;;
71456;SDS011;59263;48.160;11.752;2023-08-24T01:52:27;11.73;;;5.15;;
71456;SDS011;59263;48.160;11.752;2023-08-24T01:54:52;10.27;;;5.40;;
71456;SDS011;59263;48.160;11.752;2023-08-24T01:57:18;10.30;;;5.67;;
71456;SDS011;59263;48.160;11.752;2023-08-24T01:59:43;10.93;;;5.78;;
71456;SDS011;59263;48.160;11.752;2023-08-24T02:02:08;17.23;;;5.27;;
71456;SDS011;59263;48.160;11.752;2023-08-24T02:04:34;11.37;;;5.63;;
71456;SDS011;59263;48.160;11.752;2023-08-24T02:06:59;11.43;;;5.67;;
71456;SDS011;59263;48.160;11.752;2023-08-24T02:09:25;10.55;;;5.25;;
71456;SDS011;59263;48.160;11.752;2023-08-24T02:11:50;10.17;;;5.50;;
71456;SDS011;59263;48.160;11.752;2023-08-24T02:14:15;10.37;;;5.60;;
71456;SDS011;59263;48.160;11.752;2023-08-24T02:16:41;11.17;;;5.57;;
71456;SDS011;59263;48.160;11.752;2023-08-24T02:19:06;11.33;;;6.10;;
71456;SDS011;59263;48.160;11.752;2023-08-24T02:21:31;10.97;;;5.43;;
71456;SDS011;59263;48.160;11.752;2023-08-24T02:23:57;10.93;;;5.70;;
71456;SDS011;59263;48.160;11.752;2023-08-24T02:26:22;11.63;;;6.20;;
71456;SDS011;59263;48.160;11.752;2023-08-24T02:28:47;10.75;;;5.30;;
71456;SDS011;59263;48.160;11.752;2023-08-24T02:31:14;10.15;;;5.32;;
71456;SDS011;59263;48.160;11.752;2023-08-24T02:33:41;12.55;;;5.57;;
71456;SDS011;59263;48.160;11.752;2023-08-24T02:36:07;11.65;;;5.78;;
71456;SDS011;59263;48.160;11.752;2023-08-24T02:38:32;11.30;;;5.13;;
71456;SDS011;59263;48.160;11.752;2023-08-24T02:41:04;12.63;;;5.57;;
71456;SDS011;59263;48.160;11.752;2023-08-24T02:43:31;12.15;;;6.07;;
71456;SDS011;59263;48.160;11.752;2023-08-24T02:46:00;10.43;;;5.75;;
71456;SDS011;59263;48.160;11.752;2023-08-24T02:48:28;10.77;;;5.03;;
71456;SDS011;59263;48.160;11.752;2023-08-24T02:50:53;10.53;;;5.23;;
71456;SDS011;59263;48.160;11.752;2023-08-24T02:53:18;14.07;;;5.70;;
71456;SDS011;59263;48.160;11.752;2023-08-24T02:55:44;10.97;;;5.87;;
71456;SDS011;59263;48.160;11.752;2023-08-24T02:58:09;12.07;;;5.90;;
71456;SDS011;59263;48.160;11.752;2023-08-24T03:00:37;12.03;;;5.63;;
71456;SDS011;59263;48.160;11.752;2023-08-24T03:03:03;12.93;;;6.30;;
71456;SDS011;59263;48.160;11.752;2023-08-24T03:05:30;10.20;;;5.53;;
71456;SDS011;59263;48.160;11.752;2023-08-24T03:07:56;11.27;;;5.03;;
71456;SDS011;59263;48.160;11.752;2023-08-24T03:10:21;10.63;;;5.43;;
71456;SDS011;59263;48.160;11.752;2023-08-24T03:12:46;12.00;;;6.50;;
71456;SDS011;59263;48.160;11.752;2023-08-24T03:15:12;12.87;;;6.23;;
71456;SDS011;59263;48.160;11.752;2023-08-24T03:17:37;9.67;;;5.20;;
71456;SDS011;59263;48.160;11.752;2023-08-24T03:20:02;10.17;;;5.20;;
71456;SDS011;59263;48.160;11.752;2023-08-24T03:22:28;11.15;;;5.38;;
71456;SDS011;59263;48.160;11.752;2023-08-24T03:24:54;12.03;;;5.47;;
71456;SDS011;59263;48.160;11.752;2023-08-24T03:27:19;14.53;;;5.53;;
71456;SDS011;59263;48.160;11.752;2023-08-24T03:29:44;10.73;;;5.25;;
71456;SDS011;59263;48.160;11.752;2023-08-24T03:32:10;11.20;;;5.33;;
71456;SDS011;59263;48.160;11.752;2023-08-24T03:34:35;13.67;;;5.70;;
71456;SDS011;59263;48.160;11.752;2023-08-24T03:37:01;10.45;;;5.47;;
71456;SDS011;59263;48.160;11.752;2023-08-24T03:39:26;13.17;;;5.43;;
71456;SDS011;59263;48.160;11.752;2023-08-24T03:41:51;12.10;;;6.00;;
71456;SDS011;59263;48.160;11.752;2023-08-24T03:44:17;12.43;;;5.93;;
71456;SDS011;59263;48.160;11.752;2023-08-24T03:46:42;11.43;;;5.90;;
71456;SDS011;59263;48.160;11.752;2023-08-24T03:49:07;12.87;;;5.50;;
71456;SDS011;59263;48.160;11.752;2023-08-24T03:51:32;11.87;;;5.80;;
71456;SDS011;59263;48.160;11.752;2023-08-24T03:53:58;10.30;;;5.07;;
71456;SDS011;59263;48.160;11.752;2023-08-24T03:56:23;11.27;;;5.90;;
71456;SDS011;59263;48.160;11.752;2023-08-24T03:58:48;12.50;;;5.88;;
71456;SDS011;59263;48.160;11.752;2023-08-24T04:01:14;11.23;;;5.60;;
71456;SDS011;59263;48.160;11.752;2023-08-24T04:03:40;10.82;;;5.80;;
71456;SDS011;59263;48.160;11.752;2023-08-24T04:06:05;10.70;;;5.43;;
71456;SDS011;59263;48.160;11.752;2023-08-24T04:08:31;11.93;;;6.77;;
71456;SDS011;59263;48.160;11.752;2023-08-24T04:10:56;12.37;;;5.73;;
71456;SDS011;59263;48.160;11.752;2023-08-24T04:13:21;12.17;;;5.87;;
71456;SDS011;59263;48.160;11.752;2023-08-24T04:15:47;10.30;;;5.60;;
71456;SDS011;59263;48.160;11.752;2023-08-24T04:18:12;11.90;;;5.87;;
71456;SDS011;59263;48.160;11.752;2023-08-24T04:20:37;10.93;;;5.67;;
71456;SDS011;59263;48.160;11.752;2023-08-24T04:23:03;12.63;;;5.60;;
71456;SDS011;59263;48.160;11.752;2023-08-24T04:25:28;10.13;;;5.60;;
71456;SDS011;59263;48.160;11.752;2023-08-24T04:27:54;10.50;;;5.40;;
71456;SDS011;59263;48.160;11.752;2023-08-24T04:30:20;10.90;;;5.70;;
71456;SDS011;59263;48.160;11.752;2023-08-24T04:32:46;11.13;;;5.65;;
71456;SDS011;59263;48.160;11.752;2023-08-24T04:35:12;12.80;;;5.90;;
71456;SDS011;59263;48.160;11.752;2023-08-24T04:37:37;9.90;;;5.73;;
71456;SDS011;59263;48.160;11.752;2023-08-24T04:40:03;10.48;;;5.68;;
71456;SDS011;59263;48.160;11.752;2023-08-24T04:42:29;10.57;;;5.13;;
71456;SDS011;59263;48.160;11.752;2023-08-24T04:44:54;12.50;;;5.50;;
71456;SDS011;59263;48.160;11.752;2023-08-24T04:47:20;10.37;;;4.90;;
71456;SDS011;59263;48.160;11.752;2023-08-24T04:49:45;11.67;;;5.70;;
71456;SDS011;59263;48.160;11.752;2023-08-24T04:52:10;13.50;;;5.57;;
71456;SDS011;59263;48.160;11.752;2023-08-24T04:54:36;11.07;;;5.03;;
71456;SDS011;59263;48.160;11.752;2023-08-24T04:57:01;15.10;;;5.90;;
71456;SDS011;59263;48.160;11.752;2023-08-24T04:59:27;11.70;;;6.18;;
71456;SDS011;59263;48.160;11.752;2023-08-24T05:01:52;11.00;;;5.67;;
71456;SDS011;59263;48.160;11.752;2023-08-24T05:04:17;12.07;;;5.37;;
71456;SDS011;59263;48.160;11.752;2023-08-24T05:06:43;12.10;;;5.47;;
71456;SDS011;59263;48.160;11.752;2023-08-24T05:09:08;11.30;;;5.63;;
71456;SDS011;59263;48.160;11.752;2023-08-24T05:11:34;10.03;;;5.50;;
71456;SDS011;59263;48.160;11.752;2023-08-24T05:13:59;12.67;;;6.53;;
71456;SDS011;59263;48.160;11.752;2023-08-24T05:16:24;10.60;;;5.70;;
71456;SDS011;59263;48.160;11.752;2023-08-24T05:18:50;13.47;;;6.47;;
71456;SDS011;59263;48.160;11.752;2023-08-24T05:21:15;12.18;;;5.82;;
71456;SDS011;59263;48.160;11.752;2023-08-24T05:23:41;10.27;;;4.97;;
71456;SDS011;59263;48.160;11.752;2023-08-24T05:26:06;12.90;;;5.37;;
71456;SDS011;59263;48.160;11.752;2023-08-24T05:28:32;10.30;;;5.68;;
71456;SDS011;59263;48.160;11.752;2023-08-24T05:30:57;12.77;;;5.90;;
71456;SDS011;59263;48.160;11.752;2023-08-24T05:33:24;15.57;;;5.95;;
71456;SDS011;59263;48.160;11.752;2023-08-24T05:35:50;12.98;;;6.07;;
71456;SDS011;59263;48.160;11.752;2023-08-24T05:38:16;13.13;;;5.45;;
71456;SDS011;59263;48.160;11.752;2023-08-24T05:40:43;10.38;;;5.70;;
71456;SDS011;59263;48.160;11.752;2023-08-24T05:43:10;10.35;;;5.70;;
71456;SDS011;59263;48.160;11.752;2023-08-24T05:45:36;10.47;;;5.37;;
71456;SDS011;59263;48.160;11.752;2023-08-24T05:48:01;12.90;;;6.07;;
71456;SDS011;59263;48.160;11.752;2023-08-24T05:50:27;10.73;;;5.70;;
71456;SDS011;59263;48.160;11.752;2023-08-24T05:52:52;10.67;;;5.80;;
71456;SDS011;59263;48.160;11.752;2023-08-24T05:55:18;11.60;;;6.10;;
71456;SDS011;59263;48.160;11.752;2023-08-24T05:57:43;17.60;;;6.20;;
71456;SDS011;59263;48.160;11.752;2023-08-24T06:00:08;13.23;;;7.10;;
71456;SDS011;59263;48.160;11.752;2023-08-24T06:02:37;13.68;;;6.13;;
71456;SDS011;59263;48.160;11.752;2023-08-24T06:05:03;11.95;;;5.70;;
71456;SDS011;59263;48.160;11.752;2023-08-24T06:07:28;13.07;;;6.17;;
71456;SDS011;59263;48.160;11.752;2023-08-24T06:09:55;12.45;;;6.25;;
71456;SDS011;59263;48.160;11.752;2023-08-24T06:12:21;12.90;;;6.50;;
71456;SDS011;59263;48.160;11.752;2023-08-24T06:14:46;13.73;;;6.32;;
71456;SDS011;59263;48.160;11.752;2023-08-24T06:17:12;11.87;;;6.47;;
71456;SDS011;59263;48.160;11.752;2023-08-24T06:19:37;11.77;;;5.63;;
71456;SDS011;59263;48.160;11.752;2023-08-24T06:22:02;16.17;;;7.17;;
71456;SDS011;59263;48.160;11.752;2023-08-24T06:24:27;12.37;;;6.90;;
71456;SDS011;59263;48.160;11.752;2023-08-24T06:26:53;16.50;;;6.47;;
71456;SDS011;59263;48.160;11.752;2023-08-24T06:29:18;13.30;;;6.30;;
71456;SDS011;59263;48.160;11.752;2023-08-24T06:31:43;14.53;;;6.83;;
71456;SDS011;59263;48.160;11.752;2023-08-24T06:34:09;12.83;;;6.80;;
71456;SDS011;59263;48.160;11.752;2023-08-24T06:36:34;11.93;;;6.32;;
71456;SDS011;59263;48.160;11.752;2023-08-24T06:38:59;15.63;;;6.25;;
71456;SDS011;59263;48.160;11.752;2023-08-24T06:41:25;11.27;;;5.97;;
71456;SDS011;59263;48.160;11.752;2023-08-24T06:43:50;12.90;;;6.50;;
71456;SDS011;59263;48.160;11.752;2023-08-24T06:46:15;10.50;;;5.90;;
71456;SDS011;59263;48.160;11.752;2023-08-24T06:48:41;12.90;;;5.93;;
71456;SDS011;59263;48.160;11.752;2023-08-24T06:51:09;12.35;;;5.75;;
71456;SDS011;59263;48.160;11.752;2023-08-24T06:53:35;10.00;;;5.25;;
71456;SDS011;59263;48.160;11.752;2023-08-24T06:56:00;11.67;;;5.47;;
71456;SDS011;59263;48.160;11.752;2023-08-24T06:58:25;12.60;;;5.53;;
71456;SDS011;59263;48.160;11.752;2023-08-24T07:00:51;13.67;;;5.60;;
71456;SDS011;59263;48.160;11.752;2023-08-24T07:03:16;10.27;;;5.00;;
71456;SDS011;59263;48.160;11.752;2023-08-24T07:05:43;10.35;;;5.20;;
71456;SDS011;59263;48.160;11.752;2023-08-24T07:08:09;11.25;;;5.03;;
71456;SDS011;59263;48.160;11.752;2023-08-24T07:10:34;9.27;;;4.63;;
71456;SDS011;59263;48.160;11.752;2023-08-24T07:12:59;10.37;;;4.63;;
71456;SDS011;59263;48.160;11.752;2023-08-24T07:15:25;10.10;;;5.20;;
71456;SDS011;59263;48.160;11.752;2023-08-24T07:17:50;9.73;;;4.17;;
71456;SDS011;59263;48.160;11.752;2023-08-24T07:20:15;12.03;;;4.70;;
71456;SDS011;59263;48.160;11.752;2023-08-24T07:22:41;9.25;;;4.88;;
71456;SDS011;59263;48.160;11.752;2023-08-24T07:25:06;13.00;;;5.17;;
71456;SDS011;59263;48.160;11.752;2023-08-24T07:27:33;10.13;;;4.88;;
71456;SDS011;59263;48.160;11.752;2023-08-24T07:29:59;13.25;;;5.65;;
71456;SDS011;59263;48.160;11.752;2023-08-24T07:32:28;9.93;;;5.13;;
71456;SDS011;59263;48.160;11.752;2023-08-24T07:34:53;11.80;;;4.90;;
71456;SDS011;59263;48.160;11.752;2023-08-24T07:37:18;12.63;;;4.73;;
71456;SDS011;59263;48.160;11.752;2023-08-24T07:39:44;9.90;;;5.13;;
71456;SDS011;59263;48.160;11.752;2023-08-24T07:42:09;10.85;;;5.05;;
71456;SDS011;59263;48.160;11.752;2023-08-24T07:44:35;11.90;;;4.77;;
71456;SDS011;59263;48.160;11.752;2023-08-24T07:47:01;8.70;;;4.77;;
71456;SDS011;59263;48.160;11.752;2023-08-24T07:49:26;13.05;;;5.05;;
71456;SDS011;59263;48.160;11.752;2023-08-24T07:51:52;12.23;;;5.27;;
71456;SDS011;59263;48.160;11.752;2023-08-24T07:54:17;10.82;;;5.22;;
71456;SDS011;59263;48.160;11.752;2023-08-24T07:56:43;11.50;;;5.50;;
71456;SDS011;59263;48.160;11.752;2023-08-24T07:59:08;9.33;;;4.73;;
71456;SDS011;59263;48.160;11.752;2023-08-24T08:01:34;10.03;;;4.80;;
71456;SDS011;59263;48.160;11.752;2023-08-24T08:03:59;9.50;;;4.93;;
71456;SDS011;59263;48.160;11.752;2023-08-24T08:06:25;12.20;;;4.88;;
71456;SDS011;59263;48.160;11.752;2023-08-24T08:08:51;14.13;;;4.63;;
71456;SDS011;59263;48.160;11.752;2023-08-24T08:11:17;11.83;;;5.53;;
71456;SDS011;59263;48.160;11.752;2023-08-24T08:13:43;9.63;;;5.15;;
71456;SDS011;59263;48.160;11.752;2023-08-24T08:16:08;11.10;;;4.97;;
71456;SDS011;59263;48.160;11.752;2023-08-24T08:18:34;13.20;;;5.18;;
71456;SDS011;59263;48.160;11.752;2023-08-24T08:21:01;9.90;;;4.63;;
71456;SDS011;59263;48.160;11.752;2023-08-24T08:23:28;11.82;;;4.88;;
71456;SDS011;59263;48.160;11.752;2023-08-24T08:25:54;11.70;;;5.03;;
71456;SDS011;59263;48.160;11.752;2023-08-24T08:28:19;11.53;;;5.30;;
71456;SDS011;59263;48.160;11.752;2023-08-24T08:30:45;9.10;;;4.93;;
71456;SDS011;59263;48.160;11.752;2023-08-24T08:33:10;10.43;;;5.50;;
71456;SDS011;59263;48.160;11.752;2023-08-24T08:35:36;9.87;;;5.27;;
71456;SDS011;59263;48.160;11.752;2023-08-24T08:38:05;9.57;;;4.93;;
71456;SDS011;59263;48.160;11.752;2023-08-24T08:40:31;11.57;;;5.15;;
71456;SDS011;59263;48.160;11.752;2023-08-24T08:42:57;10.88;;;5.03;;
71456;SDS011;59263;48.160;11.752;2023-08-24T08:45:26;11.27;;;5.17;;
71456;SDS011;59263;48.160;11.752;2023-08-24T08:47:55;9.45;;;4.78;;
71456;SDS011;59263;48.160;11.752;2023-08-24T08:50:22;10.85;;;5.20;;
71456;SDS011;59263;48.160;11.752;2023-08-24T08:52:48;11.43;;;4.55;;
71456;SDS011;59263;48.160;11.752;2023-08-24T08:55:14;10.40;;;5.57;;
71456;SDS011;59263;48.160;11.752;2023-08-24T08:57:40;11.35;;;4.70;;
71456;SDS011;59263;48.160;11.752;2023-08-24T09:00:08;9.40;;;4.97;;
71456;SDS011;59263;48.160;11.752;2023-08-24T09:02:37;10.63;;;4.82;;
71456;SDS011;59263;48.160;11.752;2023-08-24T09:05:04;10.68;;;4.78;;
71456;SDS011;59263;48.160;11.752;2023-08-24T09:07:30;9.00;;;5.07;;
71456;SDS011;59263;48.160;11.752;2023-08-24T09:09:56;10.27;;;5.03;;
71456;SDS011;59263;48.160;11.752;2023-08-24T09:12:21;10.90;;;4.80;;
71456;SDS011;59263;48.160;11.752;2023-08-24T09:14:47;9.53;;;4.57;;
71456;SDS011;59263;48.160;11.752;2023-08-24T09:17:19;10.93;;;4.90;;
71456;SDS011;59263;48.160;11.752;2023-08-24T09:19:45;12.25;;;4.85;;
71456;SDS011;59263;48.160;11.752;2023-08-24T09:22:11;9.67;;;4.43;;
71456;SDS011;59263;48.160;11.752;2023-08-24T09:24:36;10.50;;;5.13;;
71456;SDS011;59263;48.160;11.752;2023-08-24T09:27:14;13.20;;;5.33;;
71456;SDS011;59263;48.160;11.752;2023-08-24T09:29:50;8.77;;;4.45;;
71456;SDS011;59263;48.160;11.752;2023-08-24T09:32:50;10.15;;;4.72;;
71456;SDS011;59263;48.160;11.752;2023-08-24T09:35:09;8.20;;;4.60;;
71456;SDS011;59263;48.160;11.752;2023-08-24T09:37:35;9.53;;;4.77;;
71456;SDS011;59263;48.160;11.752;2023-08-24T09:40:05;9.80;;;5.13;;
71456;SDS011;59263;48.160;11.752;2023-08-24T09:42:37;10.18;;;4.72;;
71456;SDS011;59263;48.160;11.752;2023-08-24T09:45:07;10.27;;;4.43;;
71456;SDS011;59263;48.160;11.752;2023-08-24T09:47:36;13.55;;;5.10;;
71456;SDS011;59263;48.160;11.752;2023-08-24T09:50:02;11.47;;;4.87;;
71456;SDS011;59263;48.160;11.752;2023-08-24T09:52:29;12.43;;;4.97;;
71456;SDS011;59263;48.160;11.752;2023-08-24T09:54:58;8.98;;;4.88;;
71456;SDS011;59263;48.160;11.752;2023-08-24T09:57:30;12.30;;;4.78;;
71456;SDS011;59263;48.160;11.752;2023-08-24T10:00:01;8.82;;;4.43;;
71456;SDS011;59263;48.160;11.752;2023-08-24T10:02:31;11.35;;;5.15;;
71456;SDS011;59263;48.160;11.752;2023-08-24T10:05:09;12.65;;;4.95;;
71456;SDS011;59263;48.160;11.752;2023-08-24T10:07:36;12.13;;;4.40;;
71456;SDS011;59263;48.160;11.752;2023-08-24T10:10:03;8.75;;;4.35;;
71456;SDS011;59263;48.160;11.752;2023-08-24T10:12:41;8.95;;;4.47;;
71456;SDS011;59263;48.160;11.752;2023-08-24T10:15:11;10.33;;;4.93;;
71456;SDS011;59263;48.160;11.752;2023-08-24T10:17:37;10.25;;;4.80;;
71456;SDS011;59263;48.160;11.752;2023-08-24T10:20:05;11.65;;;4.82;;
71456;SDS011;59263;48.160;11.752;2023-08-24T10:22:34;12.60;;;4.80;;
71456;SDS011;59263;48.160;11.752;2023-08-24T10:25:01;10.80;;;5.18;;
71456;SDS011;59263;48.160;11.752;2023-08-24T10:27:27;10.63;;;5.00;;
71456;SDS011;59263;48.160;11.752;2023-08-24T10:29:53;9.13;;;4.78;;
71456;SDS011;59263;48.160;11.752;2023-08-24T10:32:21;10.03;;;5.30;;
71456;SDS011;59263;48.160;11.752;2023-08-24T10:34:49;9.13;;;4.60;;
71456;SDS011;59263;48.160;11.752;2023-08-24T10:37:14;8.10;;;4.28;;
71456;SDS011;59263;48.160;11.752;2023-08-24T10:39:43;9.80;;;4.53;;
71456;SDS011;59263;48.160;11.752;2023-08-24T10:42:11;12.20;;;4.57;;
71456;SDS011;59263;48.160;11.752;2023-08-24T10:44:38;11.38;;;4.82;;
71456;SDS011;59263;48.160;11.752;2023-08-24T10:52:21;10.57;;;4.30;;
71456;SDS011;59263;48.160;11.752;2023-08-24T10:54:55;9.18;;;4.45;;
71456;SDS011;59263;48.160;11.752;2023-08-24T10:57:22;11.03;;;4.30;;
71456;SDS011;59263;48.160;11.752;2023-08-24T10:59:58;10.77;;;4.82;;
71456;SDS011;59263;48.160;11.752;2023-08-24T11:02:24;9.40;;;4.75;;
71456;SDS011;59263;48.160;11.752;2023-08-24T11:05:06;11.90;;;4.72;;
71456;SDS011;59263;48.160;11.752;2023-08-24T11:13:14;8.80;;;4.35;;
71456;SDS011;59263;48.160;11.752;2023-08-24T11:15:45;9.15;;;4.47;;
71456;SDS011;59263;48.160;11.752;2023-08-24T11:21:04;10.27;;;4.75;;
71456;SDS011;59263;48.160;11.752;2023-08-24T11:23:31;9.18;;;4.57;;
71456;SDS011;59263;48.160;11.752;2023-08-24T11:25:58;9.90;;;4.50;;
71456;SDS011;59263;48.160;11.752;2023-08-24T11:28:26;10.73;;;4.78;;
71456;SDS011;59263;48.160;11.752;2023-08-24T11:30:52;9.10;;;4.60;;
71456;SDS011;59263;48.160;11.752;2023-08-24T11:33:28;9.77;;;4.43;;
71456;SDS011;59263;48.160;11.752;2023-08-24T11:35:59;13.27;;;4.63;;
71456;SDS011;59263;48.160;11.752;2023-08-24T11:38:34;9.52;;;4.97;;
71456;SDS011;59263;48.160;11.752;2023-08-24T11:41:13;10.63;;;4.55;;
71456;SDS011;59263;48.160;11.752;2023-08-24T11:43:40;8.43;;;4.63;;
71456;SDS011;59263;48.160;11.752;2023-08-24T11:46:05;10.07;;;4.50;;
71456;SDS011;59263;48.160;11.752;2023-08-24T11:48:31;11.98;;;4.75;;
71456;SDS011;59263;48.160;11.752;2023-08-24T11:50:59;9.73;;;4.37;;
71456;SDS011;59263;48.160;11.752;2023-08-24T11:53:25;9.23;;;4.70;;
71456;SDS011;59263;48.160;11.752;2023-08-24T11:55:54;9.57;;;5.50;;
71456;SDS011;59263;48.160;11.752;2023-08-24T11:58:20;9.18;;;4.65;;
71456;SDS011;59263;48.160;11.752;2023-08-24T12:00:45;9.70;;;5.10;;
71456;SDS011;59263;48.160;11.752;2023-08-24T12:03:12;10.90;;;4.60;;
71456;SDS011;59263;48.160;11.752;2023-08-24T12:05:38;9.57;;;4.57;;
71456;SDS011;59263;48.160;11.752;2023-08-24T12:08:03;11.93;;;4.60;;
71456;SDS011;59263;48.160;11.752;2023-08-24T12:10:29;10.07;;;4.30;;
71456;SDS011;59263;48.160;11.752;2023-08-24T12:13:05;9.38;;;4.18;;
71456;SDS011;59263;48.160;11.752;2023-08-24T12:15:33;9.48;;;4.82;;
71456;SDS011;59263;48.160;11.752;2023-08-24T12:18:06;10.83;;;4.73;;
71456;SDS011;59263;48.160;11.752;2023-08-24T12:20:32;8.15;;;4.07;;
71456;SDS011;59263;48.160;11.752;2023-08-24T12:22:58;8.33;;;4.00;;
71456;SDS011;59263;48.160;11.752;2023-08-24T12:25:24;9.30;;;3.80;;
71456;SDS011;59263;48.160;11.752;2023-08-24T12:27:54;9.52;;;4.30;;
71456;SDS011;59263;48.160;11.752;2023-08-24T12:30:43;8.43;;;3.70;;
71456;SDS011;59263;48.160;11.752;2023-08-24T12:33:22;11.10;;;3.80;;
71456;SDS011;59263;48.160;11.752;2023-08-24T12:35:49;10.98;;;3.90;;
71456;SDS011;59263;48.160;11.752;2023-08-24T12:38:14;9.13;;;4.05;;
71456;SDS011;59263;48.160;11.752;2023-08-24T12:40:40;8.93;;;3.73;;
71456;SDS011;59263;48.160;11.752;2023-08-24T12:43:05;11.67;;;3.60;;
71456;SDS011;59263;48.160;11.752;2023-08-24T12:45:31;11.03;;;4.33;;
71456;SDS011;59263;48.160;11.752;2023-08-24T12:47:56;9.45;;;4.25;;
71456;SDS011;59263;48.160;11.752;2023-08-24T12:50:22;12.47;;;4.50;;
71456;SDS011;59263;48.160;11.752;2023-08-24T12:52:47;9.87;;;3.97;;
71456;SDS011;59263;48.160;11.752;2023-08-24T12:55:12;8.80;;;4.20;;
71456;SDS011;59263;48.160;11.752;2023-08-24T12:57:37;10.13;;;4.00;;
71456;SDS011;59263;48.160;11.752;2023-08-24T13:00:03;11.40;;;4.07;;
71456;SDS011;59263;48.160;11.752;2023-08-24T13:02:28;9.73;;;3.63;;
71456;SDS011;59263;48.160;11.752;2023-08-24T13:04:53;9.30;;;3.43;;
71456;SDS011;59263;48.160;11.752;2023-08-24T13:07:20;8.35;;;3.58;;
71456;SDS011;59263;48.160;11.752;2023-08-24T13:09:45;9.77;;;4.00;;
71456;SDS011;59263;48.160;11.752;2023-08-24T13:12:11;12.73;;;3.93;;
71456;SDS011;59263;48.160;11.752;2023-08-24T13:14:36;9.32;;;3.58;;
71456;SDS011;59263;48.160;11.752;2023-08-24T13:17:01;14.27;;;3.80;;
71456;SDS011;59263;48.160;11.752;2023-08-24T13:19:27;11.30;;;3.87;;
71456;SDS011;59263;48.160;11.752;2023-08-24T13:21:52;10.33;;;4.00;;
71456;SDS011;59263;48.160;11.752;2023-08-24T13:24:17;9.70;;;4.00;;
71456;SDS011;59263;48.160;11.752;2023-08-24T13:26:43;10.67;;;3.90;;
71456;SDS011;59263;48.160;11.752;2023-08-24T13:29:08;9.13;;;4.27;;
71456;SDS011;59263;48.160;11.752;2023-08-24T13:31:33;10.13;;;3.20;;
71456;SDS011;59263;48.160;11.752;2023-08-24T13:34:00;9.00;;;3.13;;
71456;SDS011;59263;48.160;11.752;2023-08-24T13:36:29;11.15;;;3.55;;
71456;SDS011;59263;48.160;11.752;2023-08-24T13:38:54;10.37;;;3.23;;
71456;SDS011;59263;48.160;11.752;2023-08-24T13:41:20;10.10;;;3.40;;
71456;SDS011;59263;48.160;11.752;2023-08-24T13:43:45;9.33;;;3.60;;
71456;SDS011;59263;48.160;11.752;2023-08-24T13:46:10;9.17;;;3.30;;
71456;SDS011;59263;48.160;11.752;2023-08-24T13:48:35;8.63;;;3.20;;
71456;SDS011;59263;48.160;11.752;2023-08-24T13:51:01;7.33;;;3.03;;
71456;SDS011;59263;48.160;11.752;2023-08-24T13:53:26;10.27;;;3.60;;
71456;SDS011;59263;48.160;11.752;2023-08-24T13:55:52;9.40;;;4.37;;
71456;SDS011;59263;48.160;11.752;2023-08-24T13:58:17;10.67;;;3.77;;
71456;SDS011;59263;48.160;11.752;2023-08-24T14:00:42;10.27;;;3.60;;
71456;SDS011;59263;48.160;11.752;2023-08-24T14:03:09;9.50;;;3.50;;
71456;SDS011;59263;48.160;11.752;2023-08-24T14:05:38;12.03;;;3.80;;
71456;SDS011;59263;48.160;11.752;2023-08-24T14:08:04;10.77;;;3.70;;
71456;SDS011;59263;48.160;11.752;2023-08-24T14:10:29;13.07;;;3.87;;
71456;SDS011;59263;48.160;11.752;2023-08-24T14:12:55;14.53;;;4.00;;
71456;SDS011;59263;48.160;11.752;2023-08-24T14:15:20;9.73;;;3.70;;
71456;SDS011;59263;48.160;11.752;2023-08-24T14:17:45;13.53;;;4.07;;
71456;SDS011;59263;48.160;11.752;2023-08-24T14:20:11;12.85;;;3.83;;
71456;SDS011;59263;48.160;11.752;2023-08-24T14:22:37;9.67;;;4.10;;
71456;SDS011;59263;48.160;11.752;2023-08-24T14:25:03;9.65;;;3.53;;
71456;SDS011;59263;48.160;11.752;2023-08-24T14:27:28;11.63;;;3.47;;
71456;SDS011;59263;48.160;11.752;2023-08-24T14:29:53;8.90;;;3.87;;
71456;SDS011;59263;48.160;11.752;2023-08-24T14:32:19;10.50;;;3.63;;
71456;SDS011;59263;48.160;11.752;2023-08-24T14:34:44;9.43;;;4.10;;
71456;SDS011;59263;48.160;11.752;2023-08-24T14:37:09;8.40;;;3.60;;
71456;SDS011;59263;48.160;11.752;2023-08-24T14:39:35;11.53;;;3.93;;
71456;SDS011;59263;48.160;11.752;2023-08-24T14:42:00;16.47;;;3.50;;
71456;SDS011;59263;48.160;11.752;2023-08-24T14:44:27;10.80;;;3.60;;